Aviation Digital Data Service (ADDS)

Output produced by METARs form (2052 UTC 31 January 2023)
found at http://www.aviationweather.gov/metar/data/
 
LETO 312030Z 02007KT CAVOK 01/M03 Q1028 NOSIG
TAF LETO 311700Z 3118/0118 VRB04KT CAVOK TX14/0115Z TNM02/0107Z 
     BECMG 0100/0102 03010KT 
     PROB30 
     TEMPO 0106/0110 BKN014
       
LEZG 312030Z 28012KT CAVOK 07/03 Q1029
TAF LEZG 311700Z 3118/0118 31012KT 9999 FEW020 TX13/0113Z TN04/0106Z 
     TEMPO 0110/0118 31018G28KT
       
LERT 312030Z 04005KT CAVOK 09/02 Q1027 NOSIG
TAF LERT 312000Z 3121/0121 03007KT CAVOK TX17/0114Z TN03/0107Z 
     PROB30 
     TEMPO 0115/0117 29010KT
       
LELC 312030Z VRB02KT CAVOK 07/05 Q1028 NOSIG
TAF LELC 311700Z 3118/0118 29006KT CAVOK TX15/0112Z TN03/0106Z 
     BECMG 0110/0112 06010KT
       
LEAB 312030Z 19004KT CAVOK M02/M07 Q1028 NOSIG
TAF AMD LEAB 311900Z 3119/0118 VRB04KT CAVOK TX11/0115Z TNM05/0108Z
       
LEBZ 312030Z 07001KT CAVOK 04/01 Q1028
TAF LEBZ 312000Z 3121/0121 03005KT CAVOK TX15/0115Z TNM02/0107Z 
     PROB30 
     TEMPO 0103/0108 3000 BR
       
LEMO 312030Z 10004KT 340V150 CAVOK 06/M01 Q1027 NOSIG
TAF LEMO 312000Z 3121/0121 04006KT CAVOK TX17/0115Z TN00/0107Z
       
LESA 312030Z AUTO 09003KT 7000 NCD M01/M02 Q1029
TAF LESA 312000Z 3121/0121 08006KT CAVOK TX09/0115Z TNM02/0107Z 
     PROB40 
     TEMPO 3121/0112 3000 BR BKN006 
     PROB30 
     TEMPO 0100/0110 0100 FZFG VV001
       
GCLP 312030Z 34010KT 300V010 9999 FEW035 SCT045 16/10 Q1021 NOSIG
TAF GCLP 312000Z 3121/0121 35010KT 9999 SCT040 TX20/0114Z TN15/0106Z
       
LIED 311955Z 12002KT 9999 SCT030 09/07 Q1024 RMK SCT VIS MIN 9999 WIND THR35 /////KT WIND THR17 02002KT BLU
TAF LIED 311700Z 3118/0103 VRB03KT 9999 SCT040 
     TEMPO 3121/0103 VRB03KT 5000 BR FEW002
       
LIPR 312020Z AUTO VRB02KT 3900 BR BKN200/// 01/00 Q1021
TAF LIPR 311700Z 3118/0118 VRB05KT CAVOK